Charley — WDJ6426 — position and weather

sailwx.info

Track history (hours):
 
Tides and Currents Weather Stations Pressure Air Temp Water Temp Dewpoint Dewpoint Depression Visibility Wind Speed Wind Dir Waves Ship Positions

Charley

Owner: Anderson, Kent E, Escanaba, MI. More information available from US FCC via Universal Licensing System and Coast Guard Vessel Documentation Center.

Last reported at 2018-Jan-26 19:10 UTC. Time now 2018-Feb-17 19:35 UTC.
Position N 47°39' W 122°21'.
Warning: this ship's position is 22 days out of date.

Length 18 m.

Type: Pleasure craft. MMSI: 367797550.

Date/timePositionNaut miles runAvg speedWind from/ knotsBaromVisibWave heightAir tempDewpointWater temp
2018-Jan-26 19:10N 47°39' W 122°21'1 6.3
2018-Jan-26 18:59N 47°39' W 122°22'2 3.8
2018-Jan-26 18:30N 47°40' W 122°24'4 7.3
2018-Jan-26 18:00N 47°44' W 122°25'4 7.2
2018-Jan-26 17:30N 47°47' W 122°24'4 7.5
2018-Jan-26 17:00N 47°51' W 122°23'4 7.4
2018-Jan-26 16:30N 47°55' W 122°22'36 0.8
2018-Jan-24 22:02N 48°30' W 122°33'0 7.2
2018-Jan-24 22:00N 48°30' W 122°33'3 6.1
2018-Jan-24 21:27N 48°31' W 122°37'8 7.1
2018-Jan-24 20:20N 48°32' W 122°49'18 0.4
2018-Jan-22 20:14N 48°29' W 123°16'2 6.9
2018-Jan-22 19:59N 48°27' W 123°15'5 3.6
2018-Jan-22 18:34N 48°25' W 123°23'0 3.8
2018-Jan-22 18:30N 48°25' W 123°22'0 0.0
2018-Jan-22 05:41N 48°25' W 123°22'0 0.0
2018-Jan-22 05:29N 48°25' W 123°22'0 0.0
2018-Jan-22 04:59N 48°25' W 123°22'0 0.0
2018-Jan-22 04:29N 48°25' W 123°22'0 0.0
2018-Jan-22 03:59N 48°25' W 123°22'0 0.0
2018-Jan-22 03:29N 48°25' W 123°22'0 0.0
2018-Jan-22 02:59N 48°25' W 123°22'0 0.0
2018-Jan-22 02:29N 48°25' W 123°22'0 0.0
2018-Jan-22 01:56N 48°25' W 123°22'0 0.0
2018-Jan-22 01:29N 48°25' W 123°22'0 0.0
2018-Jan-22 00:56N 48°25' W 123°22'0 0.0
2018-Jan-22 00:26N 48°25' W 123°22'0 0.0
2018-Jan-21 23:59N 48°25' W 123°22'0 0.0
2018-Jan-21 23:29N 48°25' W 123°22'0 0.0
2018-Jan-21 22:59N 48°25' W 123°22'0 0.0
2018-Jan-21 22:29N 48°25' W 123°22'0 0.0
2018-Jan-21 21:59N 48°25' W 123°22'0 0.0
2018-Jan-21 21:29N 48°25' W 123°22'0 0.0
2018-Jan-21 20:59N 48°25' W 123°22'0 0.0
2018-Jan-21 20:29N 48°25' W 123°22'0 0.0
2018-Jan-21 19:59N 48°25' W 123°22'0 0.0
2018-Jan-21 19:29N 48°25' W 123°22'0 0.0
2018-Jan-21 18:59N 48°25' W 123°22'0 0.0
2018-Jan-21 18:29N 48°25' W 123°22'0 0.0
2018-Jan-21 17:59N 48°25' W 123°22'0 0.0
2018-Jan-21 17:29N 48°25' W 123°22'0 0.0
2018-Jan-21 16:56N 48°25' W 123°22'0 0.0
2018-Jan-21 16:29N 48°25' W 123°22'0 0.0
2018-Jan-21 15:59N 48°25' W 123°22'0 0.0
2018-Jan-20 20:16N 48°25' W 123°22'0 0.2
2018-Jan-20 20:00N 48°25' W 123°22'46 1.8
2018-Jan-19 19:04N 47°55' W 122°31'1 9.7
2018-Jan-19 19:00N 47°55' W 122°31'4 9.0
2018-Jan-19 18:30N 47°50' W 122°29'5 8.9
2018-Jan-19 17:59N 47°46' W 122°27'5 9.3
2018-Jan-19 17:29N 47°41' W 122°25'2 4.4
2018-Jan-19 17:00N 47°40' W 122°23'  
Track history (hours):
 
Tides and Currents Weather Stations Pressure Air Temp Water Temp Dewpoint Dewpoint Depression Visibility Wind Speed Wind Dir Waves Ship Positions

Charley

Owner: Anderson, Kent E, Escanaba, MI. More information available from US FCC via Universal Licensing System and Coast Guard Vessel Documentation Center.

Last reported at 2018-Jan-26 19:10 UTC. Time now 2018-Feb-17 19:35 UTC.
Position N 47°39' W 122°21'.
Warning: this ship's position is 22 days out of date.

Length 18 m.

Type: Pleasure craft. MMSI: 367797550.

Date/timePositionNaut miles runAvg speedWind from/ knotsBaromVisibWave heightAir tempDewpointWater temp
2018-Jan-26 19:10N 47°39' W 122°21'1 6.3
2018-Jan-26 18:59N 47°39' W 122°22'2 3.8
2018-Jan-26 18:30N 47°40' W 122°24'4 7.3
2018-Jan-26 18:00N 47°44' W 122°25'4 7.2
2018-Jan-26 17:30N 47°47' W 122°24'4 7.5
2018-Jan-26 17:00N 47°51' W 122°23'4 7.4
2018-Jan-26 16:30N 47°55' W 122°22'36 0.8
2018-Jan-24 22:02N 48°30' W 122°33'0 7.2
2018-Jan-24 22:00N 48°30' W 122°33'3 6.1
2018-Jan-24 21:27N 48°31' W 122°37'8 7.1
2018-Jan-24 20:20N 48°32' W 122°49'18 0.4
2018-Jan-22 20:14N 48°29' W 123°16'2 6.9
2018-Jan-22 19:59N 48°27' W 123°15'5 3.6
2018-Jan-22 18:34N 48°25' W 123°23'0 3.8
2018-Jan-22 18:30N 48°25' W 123°22'0 0.0
2018-Jan-22 05:41N 48°25' W 123°22'0 0.0
2018-Jan-22 05:29N 48°25' W 123°22'0 0.0
2018-Jan-22 04:59N 48°25' W 123°22'0 0.0
2018-Jan-22 04:29N 48°25' W 123°22'0 0.0
2018-Jan-22 03:59N 48°25' W 123°22'0 0.0
2018-Jan-22 03:29N 48°25' W 123°22'0 0.0
2018-Jan-22 02:59N 48°25' W 123°22'0 0.0
2018-Jan-22 02:29N 48°25' W 123°22'0 0.0
2018-Jan-22 01:56N 48°25' W 123°22'0 0.0
2018-Jan-22 01:29N 48°25' W 123°22'0 0.0
2018-Jan-22 00:56N 48°25' W 123°22'0 0.0
2018-Jan-22 00:26N 48°25' W 123°22'0 0.0
2018-Jan-21 23:59N 48°25' W 123°22'0 0.0
2018-Jan-21 23:29N 48°25' W 123°22'0 0.0
2018-Jan-21 22:59N 48°25' W 123°22'0 0.0
2018-Jan-21 22:29N 48°25' W 123°22'0 0.0
2018-Jan-21 21:59N 48°25' W 123°22'0 0.0
2018-Jan-21 21:29N 48°25' W 123°22'0 0.0
2018-Jan-21 20:59N 48°25' W 123°22'0 0.0
2018-Jan-21 20:29N 48°25' W 123°22'0 0.0
2018-Jan-21 19:59N 48°25' W 123°22'0 0.0
2018-Jan-21 19:29N 48°25' W 123°22'0 0.0
2018-Jan-21 18:59N 48°25' W 123°22'0 0.0
2018-Jan-21 18:29N 48°25' W 123°22'0 0.0
2018-Jan-21 17:59N 48°25' W 123°22'0 0.0
2018-Jan-21 17:29N 48°25' W 123°22'0 0.0
2018-Jan-21 16:56N 48°25' W 123°22'0 0.0
2018-Jan-21 16:29N 48°25' W 123°22'0 0.0
2018-Jan-21 15:59N 48°25' W 123°22'0 0.0
2018-Jan-20 20:16N 48°25' W 123°22'0 0.2
2018-Jan-20 20:00N 48°25' W 123°22'46 1.8
2018-Jan-19 19:04N 47°55' W 122°31'1 9.7
2018-Jan-19 19:00N 47°55' W 122°31'4 9.0
2018-Jan-19 18:30N 47°50' W 122°29'5 8.9
2018-Jan-19 17:59N 47°46' W 122°27'5 9.3
2018-Jan-19 17:29N 47°41' W 122°25'2 4.4
2018-Jan-19 17:00N 47°40' W 122°23'  

Dump ship's entire track history